Time;durP1;ratioP1;P1;durP2;ratioP2;P2;SDS_P1;SDS_P2;PMS_P1;PMS_P2;Temp;Humidity;BMP_temperature;BMP_pressure;BME280_temperature;BME280_humidity;BME280_pressure;Samples;Min_cycle;Max_cycle;Signal;HPM_P1;HPM_P2
2022/04/15 00:01:38;;;;;;;37.88;23.90;;;;;;;12.57;57.93;100722.11;1579434;90;25998;-77
2022/04/15 00:04:04;;;;;;;40.05;23.38;;;;;;;12.57;58.12;100720.77;1640489;86;25384;-77
2022/04/15 00:06:32;;;;;;;36.83;23.05;;;;;;;12.57;58.15;100722.61;1609178;87;28367;-77
2022/04/15 00:08:59;;;;;;;38.58;23.35;;;;;;;12.55;58.15;100732.22;1629185;86;25732;-77
2022/04/15 00:11:25;;;;;;;38.85;24.07;;;;;;;12.55;58.22;100723.32;1631509;86;26587;-77
2022/04/15 00:13:51;;;;;;;37.95;25.10;;;;;;;12.55;58.36;100732.22;1630761;86;25866;-77
2022/04/15 00:16:18;;;;;;;36.75;22.67;;;;;;;12.54;58.40;100737.27;1631102;86;25811;-76
2022/04/15 00:18:44;;;;;;;40.35;24.45;;;;;;;12.54;58.48;100735.08;1629840;86;27467;-77
2022/04/15 00:21:10;;;;;;;38.63;23.80;;;;;;;12.54;58.46;100735.08;1631828;86;26565;-77
2022/04/15 00:23:37;;;;;;;36.75;22.62;;;;;;;12.56;58.42;100734.37;1653083;86;25823;-77
2022/04/15 00:26:03;;;;;;;38.00;23.05;;;;;;;12.57;58.57;100749.48;1601582;87;25879;-76
2022/04/15 00:28:29;;;;;;;33.85;21.68;;;;;;;12.57;58.73;100748.14;1660731;86;25870;-77
2022/04/15 00:30:56;;;;;;;34.53;21.48;;;;;;;12.57;59.08;100753.52;1602617;88;27476;-77
2022/04/15 00:33:22;;;;;;;35.68;21.30;;;;;;;12.54;59.39;100748.02;1620402;86;26605;-77
2022/04/15 00:35:48;;;;;;;32.23;21.23;;;;;;;12.52;59.99;100742.00;1642173;86;26596;-77
2022/04/15 00:38:15;;;;;;;36.48;21.57;;;;;;;12.50;59.83;100741.38;1634208;86;25973;-77
2022/04/15 00:40:41;;;;;;;36.75;20.90;;;;;;;12.50;60.02;100734.66;1593586;88;26175;-77
2022/04/15 00:43:07;;;;;;;33.88;21.42;;;;;;;12.49;60.61;100730.83;1642625;86;27622;-77
2022/04/15 00:45:34;;;;;;;30.48;20.02;;;;;;;12.48;60.81;100738.56;1640944;86;25754;-76
2022/04/15 00:48:01;;;;;;;31.68;19.82;;;;;;;12.46;60.86;100736.08;1595052;88;26527;-77
2022/04/15 00:50:34;;;;;;;26.82;18.98;;;;;;;12.47;60.79;100731.54;1609776;87;26579;-77
2022/04/15 00:53:06;;;;;;;31.50;19.67;;;;;;;12.46;61.32;100730.70;1642146;86;25831;-77
2022/04/15 00:55:33;;;;;;;35.78;20.05;;;;;;;12.46;61.35;100725.83;1652215;86;27546;-76
2022/04/15 00:58:03;;;;;;;28.95;18.65;;;;;;;12.46;61.41;100728.02;1590183;88;26468;-77
2022/04/15 01:00:33;;;;;;;28.65;18.57;;;;;;;12.47;61.85;100736.38;1593926;88;25815;-77
2022/04/15 01:03:03;;;;;;;24.60;16.80;;;;;;;12.47;61.86;100732.34;1644670;86;25891;-77
2022/04/15 01:05:30;;;;;;;30.03;16.60;;;;;;;12.46;62.58;100737.42;1602626;88;26032;-77
2022/04/15 01:07:58;;;;;;;28.57;17.15;;;;;;;12.46;62.61;100734.73;1602772;88;27661;-77
2022/04/15 01:10:26;;;;;;;24.25;16.17;;;;;;;12.48;62.86;100737.21;1622926;86;26464;-77
2022/04/15 01:12:56;;;;;;;23.65;15.75;;;;;;;12.48;63.65;100739.39;1630294;86;26157;-77
2022/04/15 01:15:27;;;;;;;25.00;16.33;;;;;;;12.47;63.39;100738.25;1639086;86;26087;-77
2022/04/15 01:17:54;;;;;;;;;;;;;;;12.49;63.44;100740.23;1604311;88;25906;-77
2022/04/15 01:20:21;;;;;;;26.52;15.23;;;;;;;12.49;63.68;100731.64;1651857;86;27475;-77
2022/04/15 01:23:04;;;;;;;24.63;13.88;;;;;;;12.48;63.93;100739.90;1605738;88;26112;-77
2022/04/15 01:25:30;;;;;;;21.33;15.25;;;;;;;12.49;64.08;100742.37;1635093;86;26629;-76
2022/04/15 01:27:58;;;;;;;21.12;14.43;;;;;;;12.47;64.06;100733.69;1617964;86;26811;-77
2022/04/15 01:30:25;;;;;;;21.45;14.85;;;;;;;12.48;64.57;100734.02;1637195;86;26507;-77
2022/04/15 01:32:52;;;;;;;21.12;14.47;;;;;;;12.47;64.44;100728.85;1654914;86;27648;-77
2022/04/15 01:35:20;;;;;;;22.93;14.65;;;;;;;12.44;64.56;100726.55;1601877;88;26317;-77
2022/04/15 01:37:48;;;;;;;24.47;15.53;;;;;;;12.43;64.64;100726.21;1590045;88;25846;-77
2022/04/15 01:40:17;;;;;;;20.00;13.65;;;;;;;12.43;65.35;100727.55;1620184;86;26711;-77
2022/04/15 01:42:46;;;;;;;20.25;14.00;;;;;;;12.40;65.32;100730.95;1631246;86;25748;-77
2022/04/15 01:45:13;;;;;;;22.75;13.70;;;;;;;12.40;65.52;100732.83;1633756;86;28025;-77
2022/04/15 01:47:39;;;;;;;22.22;13.90;;;;;;;12.40;65.84;100726.12;1607030;87;26665;-76
2022/04/15 01:50:08;;;;;;;19.40;13.30;;;;;;;12.42;65.47;100728.59;1642720;86;26593;-77
2022/04/15 01:52:34;;;;;;;18.98;12.37;;;;;;;12.42;65.51;100728.09;1631080;86;26207;-77
2022/04/15 01:55:01;;;;;;;24.65;14.03;;;;;;;12.42;65.71;100732.63;1657046;86;25974;-77
2022/04/15 01:57:28;;;;;;;18.10;12.73;;;;;;;12.45;65.82;100740.27;1629959;86;27548;-77
2022/04/15 01:59:54;;;;;;;21.40;14.38;;;;;;;12.44;65.82;100742.16;1644303;86;26575;-77
2022/04/15 02:02:20;;;;;;;18.60;13.03;;;;;;;12.48;65.98;100742.08;1647332;86;25843;-76
2022/04/15 02:04:47;;;;;;;22.15;14.43;;;;;;;12.49;65.95;100744.27;1616233;88;26533;-77
2022/04/15 02:07:13;;;;;;;22.25;13.88;;;;;;;12.49;66.36;100746.95;1614312;87;26550;-77
2022/04/15 02:09:39;;;;;;;18.05;12.73;;;;;;;12.47;66.12;100749.81;1620539;87;27648;-77
2022/04/15 02:12:06;;;;;;;18.92;12.37;;;;;;;12.51;66.98;100754.30;1608740;87;26466;-77
2022/04/15 02:14:33;;;;;;;24.10;12.95;;;;;;;12.48;66.98;100751.99;1615846;86;25844;-77
2022/04/15 02:16:59;;;;;;;15.58;11.33;;;;;;;12.44;66.82;100748.87;1634517;86;25849;-77
2022/04/15 02:19:25;;;;;;;18.00;12.58;;;;;;;12.42;67.73;100750.92;1642507;86;25957;-77
2022/04/15 02:21:52;;;;;;;17.10;11.78;;;;;;;12.37;68.33;100750.67;1603160;88;28163;-77
2022/04/15 02:24:18;;;;;;;16.27;11.83;;;;;;;12.32;68.87;100745.03;1614439;88;26594;-76
2022/04/15 02:26:44;;;;;;;16.93;11.93;;;;;;;12.28;68.63;100737.05;1592164;88;25840;-77
2022/04/15 02:29:11;;;;;;;15.00;10.90;;;;;;;12.31;69.00;100739.36;1648324;86;25842;-77
2022/04/15 02:31:37;;;;;;;17.17;12.03;;;;;;;12.35;69.18;100746.84;1594655;88;25998;-77
2022/04/15 02:34:03;;;;;;;18.02;12.13;;;;;;;12.38;69.45;100751.00;1619272;86;27488;-77
2022/04/15 02:36:30;;;;;;;16.82;11.33;;;;;;;12.42;69.90;100752.78;1596723;88;26649;-77
2022/04/15 02:38:56;;;;;;;20.92;12.58;;;;;;;12.42;70.14;100742.87;1638738;86;25834;-76
2022/04/15 02:41:22;;;;;;;14.90;10.82;;;;;;;12.38;70.00;100741.60;1630493;86;25776;-77
2022/04/15 02:43:49;;;;;;;16.15;11.15;;;;;;;12.40;70.27;100737.67;1644756;86;25832;-77
2022/04/15 02:46:15;;;;;;;15.75;10.93;;;;;;;12.41;70.17;100737.16;1639151;86;28229;-77
2022/04/15 02:48:42;;;;;;;15.93;11.73;;;;;;;12.43;70.39;100740.98;1641858;86;25874;-77
2022/04/15 02:51:08;;;;;;;16.52;12.10;;;;;;;12.44;70.73;100744.84;1599647;88;25823;-77
2022/04/15 02:53:34;;;;;;;14.85;11.48;;;;;;;12.45;70.67;100742.97;1624927;86;26493;-77
2022/04/15 02:56:01;;;;;;;18.60;11.50;;;;;;;12.41;70.81;100747.91;1631175;86;25775;-77
2022/04/15 02:58:27;;;;;;;16.15;11.38;;;;;;;12.40;70.92;100744.92;1615566;87;27648;-77
2022/04/15 03:00:53;;;;;;;19.67;13.08;;;;;;;12.42;70.95;100751.43;1590499;88;26050;-77
2022/04/15 03:03:19;;;;;;;16.62;11.75;;;;;;;12.43;71.08;100749.88;1631307;86;25791;-77
2022/04/15 03:05:45;;;;;;;16.40;11.78;;;;;;;12.39;71.50;100753.48;1653469;86;25878;-77
2022/04/15 03:08:12;;;;;;;17.70;11.83;;;;;;;12.36;71.56;100751.68;1605331;87;25852;-77
2022/04/15 03:10:38;;;;;;;16.77;13.03;;;;;;;12.31;71.68;100745.58;1590910;88;27504;-77
2022/04/15 03:13:04;;;;;;;20.35;13.08;;;;;;;12.26;71.76;100753.88;1643223;86;25928;-77
2022/04/15 03:15:31;;;;;;;17.48;12.40;;;;;;;12.23;72.42;100759.12;1637503;86;25649;-77
2022/04/15 03:17:57;;;;;;;17.80;12.85;;;;;;;12.19;72.71;100757.84;1614590;87;25776;-76
2022/04/15 03:20:23;;;;;;;15.70;12.43;;;;;;;12.13;72.81;100754.59;1626780;86;26449;-77
2022/04/15 03:22:49;;;;;;;17.55;12.13;;;;;;;12.09;73.13;100749.30;1592817;88;28285;-77
2022/04/15 03:25:17;;;;;;;17.80;13.25;;;;;;;12.05;73.31;100753.90;1642925;86;25840;-77
2022/04/15 03:27:44;;;;;;;16.20;12.00;;;;;;;12.01;73.53;100756.15;1653259;86;25767;-76
2022/04/15 03:30:13;;;;;;;16.80;12.73;;;;;;;11.97;73.57;100756.22;1604969;88;25908;-77
2022/04/15 03:32:47;;;;;;;20.75;11.90;;;;;;;11.93;74.49;100750.08;1592902;88;25856;-77
2022/04/15 03:35:20;;;;;;;20.95;13.28;;;;;;;11.84;73.92;100745.34;1620948;86;27488;-77
2022/04/15 03:37:51;;;;;;;16.25;12.28;;;;;;;11.78;74.39;100751.48;1642821;86;25891;-77
2022/04/15 03:40:19;;;;;;;17.87;13.50;;;;;;;11.75;74.47;100745.14;1647545;86;25744;-77
2022/04/15 03:42:49;;;;;;;20.75;13.50;;;;;;;11.71;74.58;100735.81;1605763;88;26578;-77
2022/04/15 03:45:19;;;;;;;15.45;12.03;;;;;;;11.71;74.85;100740.34;1624787;86;25793;-77
2022/04/15 03:47:49;;;;;;;20.43;13.15;;;;;;;11.73;75.13;100734.27;1603552;88;27018;-77
2022/04/15 03:50:16;;;;;;;15.65;12.40;;;;;;;11.71;75.22;100730.95;1614972;87;26060;-77
2022/04/15 03:52:46;;;;;;;19.05;13.72;;;;;;;11.73;75.22;100732.93;1637590;86;26134;-77
2022/04/15 03:55:16;;;;;;;17.60;13.38;;;;;;;11.76;75.41;100740.61;1646337;86;25888;-77
2022/04/15 03:57:43;;;;;;;18.98;14.40;;;;;;;11.77;75.12;100737.73;1592254;88;25950;-77
2022/04/15 04:00:14;;;;;;;17.25;12.93;;;;;;;11.82;75.42;100749.23;1636488;86;27555;-76
2022/04/15 04:02:44;;;;;;;19.77;13.05;;;;;;;11.83;75.34;100755.74;1592221;88;27847;-77
2022/04/15 04:05:10;;;;;;;18.85;13.18;;;;;;;11.84;75.44;100764.63;1632434;86;26065;-77
2022/04/15 04:07:37;;;;;;;18.75;14.18;;;;;;;11.83;75.64;100757.09;1641414;86;26546;-76
2022/04/15 04:10:04;;;;;;;17.45;13.30;;;;;;;11.81;75.86;100759.13;1605867;88;25862;-77
2022/04/15 04:12:34;;;;;;;17.77;13.95;;;;;;;11.80;75.99;100752.63;1607568;88;28355;-76
2022/04/15 04:15:05;;;;;;;19.07;13.88;;;;;;;11.79;76.12;100759.84;1641694;85;25987;-77
2022/04/15 04:17:32;;;;;;;19.75;13.72;;;;;;;11.77;75.98;100767.25;1585086;88;25729;-77
2022/04/15 04:20:01;;;;;;;20.00;13.08;;;;;;;11.77;76.60;100769.93;1636531;86;26265;-77
2022/04/15 04:22:34;;;;;;;21.87;13.60;;;;;;;11.74;77.17;100774.86;1579926;88;26024;-77
2022/04/15 04:25:02;;;;;;;17.65;13.62;;;;;;;11.67;76.97;100774.78;1639664;86;27488;-77
2022/04/15 04:27:28;;;;;;;19.50;13.58;;;;;;;11.67;76.84;100776.13;1634393;86;25830;-77
2022/04/15 04:29:55;;;;;;;21.00;14.90;;;;;;;11.70;77.48;100770.36;1629515;86;26700;-77
2022/04/15 04:32:21;;;;;;;19.87;13.80;;;;;;;11.66;77.62;100773.08;1628980;86;26560;-77
2022/04/15 04:34:47;;;;;;;16.60;12.70;;;;;;;11.63;77.72;100774.81;1630789;86;25843;-77
2022/04/15 04:37:14;;;;;;;18.67;14.10;;;;;;;11.62;77.93;100767.27;1632264;86;28356;-77
2022/04/15 04:39:41;;;;;;;17.65;13.25;;;;;;;11.62;77.75;100772.63;1632688;87;25826;-77
2022/04/15 04:42:08;;;;;;;21.05;14.10;;;;;;;11.65;77.95;100777.60;1627682;87;25844;-77
2022/04/15 04:44:37;;;;;;;20.82;14.20;;;;;;;11.70;78.16;100784.31;1631560;87;26630;-77
2022/04/15 04:47:06;;;;;;;16.90;13.80;;;;;;;11.72;77.94;100786.30;1607114;87;26202;-77
2022/04/15 04:49:33;;;;;;;17.25;12.73;;;;;;;11.75;78.29;100788.58;1633494;86;27568;-77
2022/04/15 04:51:59;;;;;;;20.92;12.88;;;;;;;11.75;78.62;100784.05;1605292;87;25889;-77
2022/04/15 04:54:26;;;;;;;19.40;13.72;;;;;;;11.73;78.74;100782.58;1631802;87;25900;-77
2022/04/15 04:56:52;;;;;;;20.80;13.58;;;;;;;11.72;78.61;100785.76;1631188;87;26398;-76
2022/04/15 04:59:20;;;;;;;18.90;13.25;;;;;;;11.74;79.17;100789.62;1632572;87;26359;-77
2022/04/15 05:01:48;;;;;;;23.25;14.15;;;;;;;11.74;79.11;100792.30;1632887;87;27407;-77
2022/04/15 05:04:15;;;;;;;18.87;14.05;;;;;;;11.76;79.14;100793.75;1631249;87;26687;-77
2022/04/15 05:06:41;;;;;;;19.50;13.28;;;;;;;11.77;79.16;100799.45;1631994;87;26231;-77
2022/04/15 05:09:07;;;;;;;17.45;13.25;;;;;;;11.77;79.64;100803.48;1630604;86;25789;-77
2022/04/15 05:11:33;;;;;;;22.82;14.33;;;;;;;11.76;79.33;100801.80;1652992;86;25932;-76
2022/04/15 05:13:59;;;;;;;20.32;14.38;;;;;;;11.77;79.53;100803.48;1590171;88;27489;-77
2022/04/15 05:16:26;;;;;;;21.42;15.00;;;;;;;11.77;79.81;100810.19;1625836;86;26262;-77
2022/04/15 05:18:52;;;;;;;19.52;15.18;;;;;;;11.76;79.72;100806.36;1631198;86;25872;-77
2022/04/15 05:21:18;;;;;;;20.62;14.70;;;;;;;11.76;79.61;100807.16;1654217;86;25785;-77
2022/04/15 05:23:47;;;;;;;22.40;15.80;;;;;;;11.75;79.79;100806.86;1604428;88;25910;-77
2022/04/15 05:26:14;;;;;;;22.05;16.00;;;;;;;11.76;79.88;100805.02;1585725;88;28350;-76
2022/04/15 05:28:43;;;;;;;27.65;17.20;;;;;;;11.78;79.76;100812.37;1631130;86;26356;-77
2022/04/15 05:31:09;;;;;;;25.20;17.92;;;;;;;11.79;80.07;100814.86;1636346;86;25775;-77
2022/04/15 05:33:36;;;;;;;22.98;17.15;;;;;;;11.81;79.99;100818.68;1603800;87;26695;-76
2022/04/15 05:36:02;;;;;;;26.48;18.35;;;;;;;11.79;79.84;100824.25;1601728;88;26083;-77
2022/04/15 05:38:29;;;;;;;27.50;18.45;;;;;;;11.82;80.09;100826.56;1635294;87;27496;-76
2022/04/15 05:40:55;;;;;;;26.33;19.75;;;;;;;11.82;80.21;100815.83;1649504;86;26013;-77
2022/04/15 05:43:22;;;;;;;32.38;20.90;;;;;;;11.83;80.36;100822.84;1645236;86;25808;-76
2022/04/15 05:45:48;;;;;;;31.48;21.27;;;;;;;11.86;80.39;100822.98;1635319;86;26585;-77
2022/04/15 05:48:14;;;;;;;34.60;21.45;;;;;;;11.87;80.61;100819.30;1629868;86;25950;-77
2022/04/15 05:50:41;;;;;;;36.13;21.45;;;;;;;11.89;80.95;100827.98;1630653;86;27486;-77
2022/04/15 05:53:07;;;;;;;36.15;23.12;;;;;;;11.86;80.67;100830.53;1632391;86;25922;-77
2022/04/15 05:55:35;;;;;;;39.13;21.42;;;;;;;11.85;80.88;100823.48;1614947;88;26005;-76
2022/04/15 05:58:02;;;;;;;37.08;24.07;;;;;;;11.84;80.84;100823.18;1631670;87;25834;-77
2022/04/15 06:00:28;;;;;;;36.35;23.35;;;;;;;11.85;81.15;100823.48;1632082;87;25597;-77
2022/04/15 06:02:54;;;;;;;37.25;23.25;;;;;;;11.80;81.20;100817.03;1631857;87;27464;-76
2022/04/15 06:05:23;;;;;;;40.85;23.87;;;;;;;11.79;81.43;100828.27;1631375;87;26582;-77
2022/04/15 06:07:49;;;;;;;38.25;24.55;;;;;;;11.81;81.50;100830.76;1631470;87;25796;-77
2022/04/15 06:10:15;;;;;;;36.58;25.35;;;;;;;11.81;81.51;100841.50;1631767;87;25828;-76
2022/04/15 06:15:30;;;;;;;34.92;24.70;;;;;;;11.74;81.79;100850.00;1632051;87;28338;-77
2022/04/15 06:17:55;;;;;;;37.45;24.77;;;;;;;11.71;82.16;100857.06;1631353;87;26030;-77
2022/04/15 06:20:22;;;;;;;33.73;24.60;;;;;;;11.67;82.36;100849.92;1630793;87;25929;-77
2022/04/15 06:22:48;;;;;;;33.42;23.30;;;;;;;11.67;82.39;100853.10;1630691;87;26456;-77
2022/04/15 06:25:15;;;;;;;36.80;24.72;;;;;;;11.67;82.84;100860.65;1631682;87;26467;-77
2022/04/15 06:27:42;;;;;;;37.65;24.85;;;;;;;11.63;83.02;100855.30;1631780;87;27503;-77
2022/04/15 06:30:08;;;;;;;34.98;25.08;;;;;;;11.60;83.39;100858.35;1631521;87;25873;-77
2022/04/15 06:32:36;;;;;;;35.70;25.40;;;;;;;11.59;83.35;100859.36;1631532;87;25996;-77
2022/04/15 06:35:05;;;;;;;38.33;25.30;;;;;;;11.60;83.55;100862.38;1631667;87;26039;-77
2022/04/15 06:37:32;;;;;;;36.73;25.48;;;;;;;11.58;83.65;100855.02;1631382;87;25833;-76
2022/04/15 06:39:58;;;;;;;37.63;26.05;;;;;;;11.56;83.96;100861.09;1631478;87;27470;-78
2022/04/15 06:42:27;;;;;;;41.85;26.62;;;;;;;11.58;84.10;100869.78;1630911;87;25920;-77
2022/04/15 06:44:54;;;;;;;38.95;26.73;;;;;;;11.59;84.22;100868.74;1630432;87;26494;-77
2022/04/15 06:47:20;;;;;;;37.73;25.32;;;;;;;11.61;84.17;100874.25;1630293;87;25921;-77
2022/04/15 06:49:47;;;;;;;37.23;25.80;;;;;;;11.64;84.22;100873.89;1630169;87;25871;-76
2022/04/15 06:52:15;;;;;;;35.15;24.30;;;;;;;11.63;84.31;100868.19;1630558;87;27550;-77
2022/04/15 06:54:42;;;;;;;35.80;24.50;;;;;;;11.67;84.62;100870.05;1630127;87;25850;-77
2022/04/15 06:57:09;;;;;;;36.10;24.85;;;;;;;11.65;84.55;100866.69;1628447;86;26052;-76
2022/04/15 06:59:36;;;;;;;39.18;26.07;;;;;;;11.64;84.94;100863.66;1636751;86;26612;-77
2022/04/15 07:02:03;;;;;;;41.70;25.12;;;;;;;11.61;84.99;100861.38;1614469;87;26681;-77
2022/04/15 07:04:29;;;;;;;36.60;26.10;;;;;;;11.62;85.44;100859.83;1638624;86;27530;-77
2022/04/15 07:06:56;;;;;;;39.25;26.27;;;;;;;11.65;85.55;100852.73;1616164;87;25784;-77
2022/04/15 07:09:22;;;;;;;36.95;24.85;;;;;;;11.67;85.36;100860.65;1602215;87;25758;-77
2022/04/15 07:11:49;;;;;;;38.40;24.75;;;;;;;11.68;85.82;100860.95;1602274;87;25866;-77
2022/04/15 07:14:16;;;;;;;35.85;24.57;;;;;;;11.71;86.58;100859.25;1645357;86;26540;-77
2022/04/15 07:16:43;;;;;;;39.65;26.93;;;;;;;11.76;86.45;100860.84;1631282;86;27466;-77
2022/04/15 07:19:10;;;;;;;39.38;24.85;;;;;;;11.82;86.86;100870.01;1631332;86;25979;-76
2022/04/15 07:21:38;;;;;;;33.02;23.52;;;;;;;11.88;87.00;100874.12;1637782;86;26524;-77
2022/04/15 07:24:06;;;;;;;36.03;23.65;;;;;;;11.94;87.21;100873.36;1647412;86;25918;-77
2022/04/15 07:26:33;;;;;;;37.30;24.98;;;;;;;11.96;87.24;100866.45;1568735;90;26581;-77
2022/04/15 07:29:00;;;;;;;33.78;23.70;;;;;;;12.07;88.30;100869.98;1628049;86;28376;-77
2022/04/15 07:31:27;;;;;;;30.88;22.80;;;;;;;12.12;87.40;100871.10;1631597;86;25851;-77
2022/04/15 07:33:53;;;;;;;26.15;18.62;;;;;;;12.16;87.13;100870.20;1642433;86;26479;-77
2022/04/15 07:36:42;;;;;;;35.10;22.75;;;;;;;12.18;87.59;100872.19;1608982;88;26596;-77
2022/04/15 07:39:01;;;;;;;30.23;21.85;;;;;;;12.18;87.68;100866.31;1642039;86;25748;-77
2022/04/15 07:41:27;;;;;;;31.00;22.17;;;;;;;12.19;87.68;100865.77;1615115;88;27496;-77
2022/04/15 07:43:54;;;;;;;31.70;22.98;;;;;;;12.24;88.18;100873.59;1598910;88;26026;-77
2022/04/15 07:46:20;;;;;;;28.70;20.05;;;;;;;12.30;87.84;100863.93;1642111;86;25898;-77
2022/04/15 07:48:46;;;;;;;31.97;21.52;;;;;;;12.32;87.92;100868.09;1631293;86;26581;-77
2022/04/15 07:51:12;;;;;;;33.38;22.73;;;;;;;12.31;87.08;100870.48;1631263;86;26036;-77
2022/04/15 07:53:39;;;;;;;30.77;20.97;;;;;;;12.36;87.36;100876.09;1631316;86;27495;-77
2022/04/15 07:56:05;;;;;;;29.98;20.70;;;;;;;12.40;87.44;100884.08;1631058;86;25856;-77
2022/04/15 07:58:31;;;;;;;26.55;19.87;;;;;;;12.37;86.77;100876.42;1631903;86;25800;-77
2022/04/15 08:01:01;;;;;;;28.65;20.82;;;;;;;12.33;86.82;100875.65;1631305;86;26530;-77
2022/04/15 08:03:28;;;;;;;27.40;20.00;;;;;;;12.35;87.43;100880.31;1639617;86;26084;-77
2022/04/15 08:05:54;;;;;;;29.48;19.73;;;;;;;12.38;87.42;100877.27;1604544;88;27460;-77
2022/04/15 08:08:21;;;;;;;28.57;21.15;;;;;;;12.37;86.98;100876.92;1622437;86;26558;-77
2022/04/15 08:10:48;;;;;;;30.95;20.35;;;;;;;12.39;87.21;100875.72;1645795;86;26500;-77
2022/04/15 08:13:14;;;;;;;27.17;18.60;;;;;;;12.42;87.51;100877.70;1633699;85;26580;-77
2022/04/15 08:15:41;;;;;;;29.25;20.45;;;;;;;12.46;87.28;100877.63;1594658;88;25845;-76
2022/04/15 08:18:07;;;;;;;29.77;20.43;;;;;;;12.47;87.73;100882.80;1655937;86;27634;-79
2022/04/15 08:20:33;;;;;;;28.55;20.70;;;;;;;12.53;87.44;100883.38;1603926;88;25917;-77
2022/04/15 08:22:59;;;;;;;29.55;20.95;;;;;;;12.56;87.47;100887.03;1592097;88;26465;-77
2022/04/15 08:25:26;;;;;;;28.42;20.00;;;;;;;12.59;86.96;100893.38;1595943;88;25861;-77
2022/04/15 08:27:52;;;;;;;28.98;19.48;;;;;;;12.58;86.76;100890.86;1631771;86;25828;-77
2022/04/15 08:30:18;;;;;;;28.85;20.88;;;;;;;12.56;86.90;100885.69;1650447;86;28555;-77
2022/04/15 08:32:53;;;;;;;31.50;21.77;;;;;;;12.57;86.98;100893.24;1606085;88;25992;-77
2022/04/15 08:35:19;;;;;;;29.25;21.00;;;;;;;12.54;87.13;100885.05;1595558;88;25837;-77
2022/04/15 08:37:45;;;;;;;28.90;19.35;;;;;;;12.52;86.85;100885.76;1630926;86;26451;-76
2022/04/15 08:40:13;;;;;;;29.07;20.05;;;;;;;12.53;87.22;100887.94;1634246;86;25802;-77
2022/04/15 08:42:43;;;;;;;26.97;20.43;;;;;;;12.53;86.49;100891.44;1632672;86;28261;-77
2022/04/15 08:45:16;;;;;;;31.85;21.05;;;;;;;12.48;86.67;100892.55;1634358;86;25990;-77
2022/04/15 08:47:41;;;;;;;31.00;22.35;;;;;;;12.43;86.80;100899.49;1629495;86;25863;-77
2022/04/15 08:50:13;;;;;;;29.90;21.25;;;;;;;12.37;86.71;100895.23;1644782;86;26313;-77
2022/04/15 08:52:40;;;;;;;30.52;21.97;;;;;;;12.33;86.29;100895.80;1606956;87;26080;-77
2022/04/15 08:55:07;;;;;;;31.42;22.58;;;;;;;12.29;86.68;100894.02;1634824;86;27461;-77
2022/04/15 08:57:33;;;;;;;31.73;22.13;;;;;;;12.32;86.96;100896.80;1608536;87;25817;-77
2022/04/15 09:00:00;;;;;;;29.10;21.42;;;;;;;12.39;87.09;100891.84;1628044;86;25847;-77
2022/04/15 09:02:33;;;;;;;30.80;20.55;;;;;;;12.39;86.48;100886.46;1630433;86;26037;-77
2022/04/15 09:05:01;;;;;;;28.83;21.15;;;;;;;12.38;86.66;100896.88;1630953;86;25888;-77
2022/04/15 09:07:29;;;;;;;32.33;21.93;;;;;;;12.36;86.21;100899.42;1630655;86;28299;-77
2022/04/15 09:09:57;;;;;;;30.27;22.25;;;;;;;12.33;86.32;100903.86;1631229;86;26551;-77
2022/04/15 09:12:27;;;;;;;30.00;20.97;;;;;;;12.34;86.64;100906.34;1644010;86;25765;-77
2022/04/15 09:14:59;;;;;;;31.35;21.87;;;;;;;12.36;86.76;100898.92;1644594;86;26541;-77
2022/04/15 09:17:29;;;;;;;27.62;20.62;;;;;;;12.34;86.72;100900.12;1605993;87;26019;-77
2022/04/15 09:19:58;;;;;;;28.62;20.17;;;;;;;12.32;86.63;100903.02;1644552;86;28324;-77
2022/04/15 09:22:24;;;;;;;29.07;21.60;;;;;;;12.28;86.70;100907.11;1624137;86;25795;-77
2022/04/15 09:24:51;;;;;;;27.90;20.37;;;;;;;12.26;86.81;100901.59;1633226;86;25906;-77
2022/04/15 09:27:19;;;;;;;28.62;20.80;;;;;;;12.25;87.44;100895.92;1656182;86;26205;-77
2022/04/15 09:29:46;;;;;;;30.25;22.02;;;;;;;12.25;86.98;100903.44;1645239;86;26140;-77
2022/04/15 09:32:16;;;;;;;30.92;21.55;;;;;;;12.26;87.49;100903.78;1624131;86;27494;-77
2022/04/15 09:35:06;;;;;;;29.87;22.45;;;;;;;12.29;87.35;100905.27;1631168;86;25774;-77
2022/04/15 09:37:45;;;;;;;30.95;20.88;;;;;;;12.26;88.23;100890.35;1636835;86;32551;-78
2022/04/15 09:40:16;;;;;;;27.52;19.20;;;;;;;12.26;88.23;100890.35;1647203;86;26343;-77
2022/04/15 09:42:49;;;;;;;24.65;19.60;;;;;;;12.32;87.90;100905.70;1593465;87;25777;-77
2022/04/15 09:45:19;;;;;;;24.98;19.50;;;;;;;12.33;87.90;100905.20;1629847;86;27487;-77
2022/04/15 09:47:58;;;;;;;24.47;18.23;;;;;;;12.28;88.12;100900.39;1629570;86;26513;-77
2022/04/15 09:50:38;;;;;;;20.10;14.83;;;;;;;12.30;88.37;100901.53;1629985;86;25828;-77
2022/04/15 09:53:14;;;;;;;17.75;13.38;;;;;;;12.29;88.48;100902.07;1638875;86;26399;-77
2022/04/15 09:55:50;;;;;;;20.62;14.55;;;;;;;12.30;88.20;100898.84;1637735;86;26595;-76
2022/04/15 09:58:20;;;;;;;17.95;13.98;;;;;;;12.31;88.40;100901.87;1599849;87;27472;-77
2022/04/15 10:00:51;;;;;;;16.25;12.43;;;;;;;12.37;88.66;100905.13;1648082;86;25739;-77
2022/04/15 10:03:20;;;;;;;;;;;;;;;12.40;88.60;100901.54;1578911;88;25938;-77
2022/04/15 10:05:54;;;;;;;17.07;12.10;;;;;;;12.37;88.69;100901.10;1631029;86;44724;-77
2022/04/15 10:08:23;;;;;;;14.85;11.45;;;;;;;12.35;88.62;100905.84;1635246;86;25950;-77
2022/04/15 10:10:50;;;;;;;16.42;12.25;;;;;;;12.38;89.05;100900.09;1605013;88;27637;-78
2022/04/15 10:13:27;;;;;;;13.50;10.80;;;;;;;12.46;89.60;100901.81;1585515;88;25872;-78
2022/04/15 10:15:52;;;;;;;11.50;9.45;;;;;;;12.49;89.34;100903.59;1640700;86;26466;-77
2022/04/15 10:18:20;;;;;;;11.60;9.40;;;;;;;12.52;89.70;100902.38;1637461;86;26973;-78
2022/04/15 10:20:46;;;;;;;14.85;9.90;;;;;;;12.51;89.00;100903.42;1642462;87;25936;-78
2022/04/15 10:23:14;;;;;;;12.73;10.00;;;;;;;12.50;89.22;100903.92;1647244;86;28107;-77
2022/04/15 10:25:48;;;;;;;14.18;10.50;;;;;;;12.50;88.99;100905.77;1635329;86;26604;-77
2022/04/15 10:28:20;;;;;;;12.55;9.35;;;;;;;12.51;88.95;100910.14;1621241;86;26526;-78
2022/04/15 10:31:11;;;;;;;12.60;10.20;;;;;;;12.48;88.61;100907.31;1627825;86;26578;-78
2022/04/15 10:33:39;;;;;;;15.20;10.80;;;;;;;12.48;88.69;100914.03;1636993;86;25982;-77
2022/04/15 10:36:16;;;;;;;15.85;10.65;;;;;;;12.51;89.16;100906.11;1632509;86;27534;-77
2022/04/15 10:39:06;;;;;;;11.80;9.83;;;;;;;12.57;89.07;100909.37;1636184;86;26337;-78
2022/04/15 10:41:53;;;;;;;10.97;9.73;;;;;;;12.61;88.81;100905.27;1630289;86;25834;-77
2022/04/15 10:44:39;;;;;;;13.55;8.85;;;;;;;12.63;88.72;100904.05;1643193;87;25849;-77
2022/04/15 10:47:20;;;;;;;13.30;9.63;;;;;;;12.64;88.59;100898.98;1591178;88;25615;-78
2022/04/15 10:49:57;;;;;;;13.78;10.45;;;;;;;12.71;88.37;100901.23;1602842;88;27454;-78
2022/04/15 10:52:26;;;;;;;11.85;9.78;;;;;;;12.76;88.24;100902.00;1626665;86;25985;-78
2022/04/15 10:54:59;;;;;;;11.40;9.93;;;;;;;12.80;88.39;100900.08;1630759;87;25765;-77
2022/04/15 10:57:48;;;;;;;14.35;10.48;;;;;;;12.79;88.21;100897.05;1627293;86;26484;-77
2022/04/15 11:03:22;;;;;;;11.35;10.15;;;;;;;12.93;89.16;100896.16;1627658;86;27521;-78
2022/04/15 11:05:54;;;;;;;12.98;10.85;;;;;;;13.01;88.32;100891.97;1645335;86;25817;-78
2022/04/15 11:08:25;;;;;;;13.13;10.45;;;;;;;13.03;87.95;100894.45;1637356;86;25911;-77
2022/04/15 11:10:58;;;;;;;14.58;11.97;;;;;;;13.06;87.37;100891.42;1616596;88;26079;-77
2022/04/15 11:13:44;;;;;;;21.10;15.20;;;;;;;13.11;87.44;100887.11;1596096;88;25819;-77
2022/04/15 11:16:18;;;;;;;20.90;17.73;;;;;;;13.15;87.14;100892.95;1627820;86;27547;-77
2022/04/15 11:18:53;;;;;;;22.77;18.25;;;;;;;13.14;86.79;100885.38;1618775;87;26967;-78
2022/04/15 11:21:23;;;;;;;23.32;18.05;;;;;;;13.17;86.67;100886.02;1650434;86;25945;-77